sensor_id;sensor_type;location;lat;lon;timestamp;P1;durP1;ratioP1;P2;durP2;ratioP2
583;SDS011;27024;54.068;12.116;2022-07-18T00:02:13;5.40;;;2.83;;
583;SDS011;27024;54.068;12.116;2022-07-18T00:04:41;11.57;;;3.13;;
583;SDS011;27024;54.068;12.116;2022-07-18T00:07:08;6.30;;;2.85;;
583;SDS011;27024;54.068;12.116;2022-07-18T00:09:38;5.68;;;2.58;;
583;SDS011;27024;54.068;12.116;2022-07-18T00:12:06;7.18;;;2.75;;
583;SDS011;27024;54.068;12.116;2022-07-18T00:14:35;7.47;;;3.13;;
583;SDS011;27024;54.068;12.116;2022-07-18T00:17:03;6.65;;;2.85;;
583;SDS011;27024;54.068;12.116;2022-07-18T00:19:31;7.03;;;2.75;;
583;SDS011;27024;54.068;12.116;2022-07-18T00:21:58;7.28;;;3.45;;
583;SDS011;27024;54.068;12.116;2022-07-18T00:24:25;7.00;;;2.88;;
583;SDS011;27024;54.068;12.116;2022-07-18T00:26:51;5.43;;;3.30;;
583;SDS011;27024;54.068;12.116;2022-07-18T00:29:18;4.38;;;2.67;;
583;SDS011;27024;54.068;12.116;2022-07-18T00:31:45;5.43;;;3.03;;
583;SDS011;27024;54.068;12.116;2022-07-18T00:34:12;5.63;;;2.53;;
583;SDS011;27024;54.068;12.116;2022-07-18T00:36:39;5.45;;;2.67;;
583;SDS011;27024;54.068;12.116;2022-07-18T00:39:06;5.90;;;2.63;;
583;SDS011;27024;54.068;12.116;2022-07-18T00:41:32;5.82;;;2.72;;
583;SDS011;27024;54.068;12.116;2022-07-18T00:43:59;6.78;;;2.58;;
583;SDS011;27024;54.068;12.116;2022-07-18T00:46:26;5.00;;;2.88;;
583;SDS011;27024;54.068;12.116;2022-07-18T00:48:54;6.38;;;2.97;;
583;SDS011;27024;54.068;12.116;2022-07-18T00:51:21;8.15;;;3.15;;
583;SDS011;27024;54.068;12.116;2022-07-18T00:53:49;5.38;;;2.75;;
583;SDS011;27024;54.068;12.116;2022-07-18T00:56:17;5.47;;;3.20;;
583;SDS011;27024;54.068;12.116;2022-07-18T00:58:45;6.13;;;3.25;;
583;SDS011;27024;54.068;12.116;2022-07-18T01:01:12;6.32;;;2.80;;
583;SDS011;27024;54.068;12.116;2022-07-18T01:03:57;7.07;;;2.97;;
583;SDS011;27024;54.068;12.116;2022-07-18T01:06:24;5.20;;;2.63;;
583;SDS011;27024;54.068;12.116;2022-07-18T01:08:51;5.10;;;3.17;;
583;SDS011;27024;54.068;12.116;2022-07-18T01:11:18;5.75;;;2.85;;
583;SDS011;27024;54.068;12.116;2022-07-18T01:13:44;4.72;;;2.92;;
583;SDS011;27024;54.068;12.116;2022-07-18T01:16:13;4.95;;;2.90;;
583;SDS011;27024;54.068;12.116;2022-07-18T01:18:46;7.53;;;2.80;;
583;SDS011;27024;54.068;12.116;2022-07-18T01:21:14;7.18;;;4.35;;
583;SDS011;27024;54.068;12.116;2022-07-18T01:23:42;8.85;;;3.80;;
583;SDS011;27024;54.068;12.116;2022-07-18T01:26:10;5.78;;;3.00;;
583;SDS011;27024;54.068;12.116;2022-07-18T01:28:39;6.18;;;2.83;;
583;SDS011;27024;54.068;12.116;2022-07-18T01:31:06;9.32;;;2.97;;
583;SDS011;27024;54.068;12.116;2022-07-18T01:33:33;6.30;;;3.05;;
583;SDS011;27024;54.068;12.116;2022-07-18T01:36:01;6.35;;;3.28;;
583;SDS011;27024;54.068;12.116;2022-07-18T01:38:30;5.65;;;3.13;;
583;SDS011;27024;54.068;12.116;2022-07-18T01:40:58;5.93;;;3.40;;
583;SDS011;27024;54.068;12.116;2022-07-18T01:43:26;7.50;;;3.08;;
583;SDS011;27024;54.068;12.116;2022-07-18T01:45:54;5.72;;;3.47;;
583;SDS011;27024;54.068;12.116;2022-07-18T01:48:21;5.75;;;3.28;;
583;SDS011;27024;54.068;12.116;2022-07-18T01:50:52;5.20;;;3.25;;
583;SDS011;27024;54.068;12.116;2022-07-18T01:53:19;7.22;;;3.25;;
583;SDS011;27024;54.068;12.116;2022-07-18T01:55:46;6.57;;;3.47;;
583;SDS011;27024;54.068;12.116;2022-07-18T01:58:13;6.65;;;3.05;;
583;SDS011;27024;54.068;12.116;2022-07-18T02:00:40;5.93;;;3.08;;
583;SDS011;27024;54.068;12.116;2022-07-18T02:03:07;6.05;;;3.25;;
583;SDS011;27024;54.068;12.116;2022-07-18T02:05:34;5.68;;;3.38;;
583;SDS011;27024;54.068;12.116;2022-07-18T02:08:01;6.20;;;3.33;;
583;SDS011;27024;54.068;12.116;2022-07-18T02:10:27;5.55;;;3.00;;
583;SDS011;27024;54.068;12.116;2022-07-18T02:12:54;5.43;;;3.13;;
583;SDS011;27024;54.068;12.116;2022-07-18T02:15:21;8.23;;;3.33;;
583;SDS011;27024;54.068;12.116;2022-07-18T02:17:49;5.78;;;3.05;;
583;SDS011;27024;54.068;12.116;2022-07-18T02:20:16;7.53;;;3.28;;
583;SDS011;27024;54.068;12.116;2022-07-18T02:22:43;7.47;;;3.05;;
583;SDS011;27024;54.068;12.116;2022-07-18T02:25:11;7.05;;;3.47;;
583;SDS011;27024;54.068;12.116;2022-07-18T02:27:38;5.10;;;3.25;;
583;SDS011;27024;54.068;12.116;2022-07-18T02:30:05;8.20;;;2.95;;
583;SDS011;27024;54.068;12.116;2022-07-18T02:32:35;4.88;;;2.63;;
583;SDS011;27024;54.068;12.116;2022-07-18T02:35:04;6.50;;;3.30;;
583;SDS011;27024;54.068;12.116;2022-07-18T02:37:33;6.38;;;3.28;;
583;SDS011;27024;54.068;12.116;2022-07-18T02:40:00;8.55;;;3.40;;
583;SDS011;27024;54.068;12.116;2022-07-18T02:42:27;6.43;;;3.65;;
583;SDS011;27024;54.068;12.116;2022-07-18T02:44:54;7.20;;;3.15;;
583;SDS011;27024;54.068;12.116;2022-07-18T02:47:21;5.70;;;3.67;;
583;SDS011;27024;54.068;12.116;2022-07-18T02:49:48;6.72;;;3.85;;
583;SDS011;27024;54.068;12.116;2022-07-18T02:52:14;8.75;;;3.50;;
583;SDS011;27024;54.068;12.116;2022-07-18T02:54:42;6.10;;;3.40;;
583;SDS011;27024;54.068;12.116;2022-07-18T02:57:09;7.80;;;3.85;;
583;SDS011;27024;54.068;12.116;2022-07-18T02:59:36;8.80;;;3.55;;
583;SDS011;27024;54.068;12.116;2022-07-18T03:02:03;7.30;;;3.60;;
583;SDS011;27024;54.068;12.116;2022-07-18T03:04:30;9.05;;;3.75;;
583;SDS011;27024;54.068;12.116;2022-07-18T03:06:57;8.23;;;3.95;;
583;SDS011;27024;54.068;12.116;2022-07-18T03:09:24;6.70;;;3.00;;
583;SDS011;27024;54.068;12.116;2022-07-18T03:11:56;6.72;;;3.60;;
583;SDS011;27024;54.068;12.116;2022-07-18T03:14:23;4.97;;;3.33;;
583;SDS011;27024;54.068;12.116;2022-07-18T03:16:51;8.00;;;3.65;;
583;SDS011;27024;54.068;12.116;2022-07-18T03:19:18;6.95;;;3.35;;
583;SDS011;27024;54.068;12.116;2022-07-18T03:21:44;9.40;;;3.92;;
583;SDS011;27024;54.068;12.116;2022-07-18T03:24:11;6.28;;;3.58;;
583;SDS011;27024;54.068;12.116;2022-07-18T03:26:40;6.40;;;3.78;;
583;SDS011;27024;54.068;12.116;2022-07-18T03:29:07;5.50;;;3.45;;
583;SDS011;27024;54.068;12.116;2022-07-18T03:31:34;8.48;;;4.35;;
583;SDS011;27024;54.068;12.116;2022-07-18T03:34:01;7.20;;;3.53;;
583;SDS011;27024;54.068;12.116;2022-07-18T03:36:28;6.47;;;3.60;;
583;SDS011;27024;54.068;12.116;2022-07-18T03:38:56;6.88;;;3.72;;
583;SDS011;27024;54.068;12.116;2022-07-18T03:41:23;7.75;;;4.20;;
583;SDS011;27024;54.068;12.116;2022-07-18T03:43:49;12.13;;;4.75;;
583;SDS011;27024;54.068;12.116;2022-07-18T03:46:16;8.60;;;3.83;;
583;SDS011;27024;54.068;12.116;2022-07-18T03:48:43;6.57;;;3.72;;
583;SDS011;27024;54.068;12.116;2022-07-18T03:51:10;6.70;;;4.10;;
583;SDS011;27024;54.068;12.116;2022-07-18T03:53:37;7.22;;;4.03;;
583;SDS011;27024;54.068;12.116;2022-07-18T03:56:04;10.68;;;4.13;;
583;SDS011;27024;54.068;12.116;2022-07-18T03:58:31;6.22;;;3.60;;
583;SDS011;27024;54.068;12.116;2022-07-18T04:00:57;7.95;;;3.72;;
583;SDS011;27024;54.068;12.116;2022-07-18T04:03:24;7.25;;;4.10;;
583;SDS011;27024;54.068;12.116;2022-07-18T04:05:51;5.93;;;3.45;;
583;SDS011;27024;54.068;12.116;2022-07-18T04:08:18;6.82;;;4.28;;
583;SDS011;27024;54.068;12.116;2022-07-18T04:10:45;7.78;;;3.70;;
583;SDS011;27024;54.068;12.116;2022-07-18T04:13:11;9.95;;;3.85;;
583;SDS011;27024;54.068;12.116;2022-07-18T04:15:39;8.60;;;4.18;;
583;SDS011;27024;54.068;12.116;2022-07-18T04:18:06;10.85;;;3.70;;
583;SDS011;27024;54.068;12.116;2022-07-18T04:20:35;7.45;;;3.88;;
583;SDS011;27024;54.068;12.116;2022-07-18T04:23:04;6.68;;;4.22;;
583;SDS011;27024;54.068;12.116;2022-07-18T04:25:34;6.53;;;4.07;;
583;SDS011;27024;54.068;12.116;2022-07-18T04:28:02;6.35;;;3.72;;
583;SDS011;27024;54.068;12.116;2022-07-18T04:30:31;8.13;;;4.63;;
583;SDS011;27024;54.068;12.116;2022-07-18T04:33:00;7.93;;;3.97;;
583;SDS011;27024;54.068;12.116;2022-07-18T04:35:31;7.22;;;4.45;;
583;SDS011;27024;54.068;12.116;2022-07-18T04:37:58;8.00;;;4.22;;
583;SDS011;27024;54.068;12.116;2022-07-18T04:40:25;7.55;;;3.80;;
583;SDS011;27024;54.068;12.116;2022-07-18T04:42:52;7.72;;;4.38;;
583;SDS011;27024;54.068;12.116;2022-07-18T04:45:19;11.55;;;4.80;;
583;SDS011;27024;54.068;12.116;2022-07-18T04:47:51;8.70;;;4.10;;
583;SDS011;27024;54.068;12.116;2022-07-18T04:50:19;6.68;;;3.95;;
583;SDS011;27024;54.068;12.116;2022-07-18T04:52:47;8.48;;;4.30;;
583;SDS011;27024;54.068;12.116;2022-07-18T04:55:14;8.40;;;3.95;;
583;SDS011;27024;54.068;12.116;2022-07-18T04:57:43;7.30;;;4.70;;
583;SDS011;27024;54.068;12.116;2022-07-18T05:00:14;7.22;;;4.30;;
583;SDS011;27024;54.068;12.116;2022-07-18T05:02:43;6.80;;;4.20;;
583;SDS011;27024;54.068;12.116;2022-07-18T05:05:12;8.32;;;3.75;;
583;SDS011;27024;54.068;12.116;2022-07-18T05:07:40;6.30;;;3.80;;
583;SDS011;27024;54.068;12.116;2022-07-18T05:10:08;7.40;;;3.72;;
583;SDS011;27024;54.068;12.116;2022-07-18T05:12:37;6.95;;;3.80;;
583;SDS011;27024;54.068;12.116;2022-07-18T05:15:05;7.90;;;3.85;;
583;SDS011;27024;54.068;12.116;2022-07-18T05:17:34;7.53;;;3.95;;
583;SDS011;27024;54.068;12.116;2022-07-18T05:20:01;7.95;;;4.25;;
583;SDS011;27024;54.068;12.116;2022-07-18T05:22:29;6.47;;;3.40;;
583;SDS011;27024;54.068;12.116;2022-07-18T05:24:56;6.82;;;3.78;;
583;SDS011;27024;54.068;12.116;2022-07-18T05:27:23;6.50;;;3.45;;
583;SDS011;27024;54.068;12.116;2022-07-18T05:29:49;5.85;;;3.35;;
583;SDS011;27024;54.068;12.116;2022-07-18T05:32:16;4.68;;;2.55;;
583;SDS011;27024;54.068;12.116;2022-07-18T05:34:46;4.43;;;2.78;;
583;SDS011;27024;54.068;12.116;2022-07-18T05:37:13;5.45;;;2.83;;
583;SDS011;27024;54.068;12.116;2022-07-18T05:39:40;5.63;;;3.08;;
583;SDS011;27024;54.068;12.116;2022-07-18T05:42:06;6.45;;;3.25;;
583;SDS011;27024;54.068;12.116;2022-07-18T05:44:33;7.50;;;3.22;;
583;SDS011;27024;54.068;12.116;2022-07-18T05:47:00;5.63;;;3.03;;
583;SDS011;27024;54.068;12.116;2022-07-18T05:49:27;4.65;;;2.83;;
583;SDS011;27024;54.068;12.116;2022-07-18T05:51:53;5.88;;;2.97;;
583;SDS011;27024;54.068;12.116;2022-07-18T05:54:21;7.18;;;2.78;;
583;SDS011;27024;54.068;12.116;2022-07-18T05:56:52;4.93;;;2.75;;
583;SDS011;27024;54.068;12.116;2022-07-18T05:59:20;6.60;;;2.78;;
583;SDS011;27024;54.068;12.116;2022-07-18T06:01:47;4.97;;;2.70;;
583;SDS011;27024;54.068;12.116;2022-07-18T06:04:14;5.15;;;2.83;;
583;SDS011;27024;54.068;12.116;2022-07-18T06:06:42;6.55;;;2.80;;
583;SDS011;27024;54.068;12.116;2022-07-18T06:09:09;4.18;;;2.65;;
583;SDS011;27024;54.068;12.116;2022-07-18T06:11:37;8.45;;;2.80;;
583;SDS011;27024;54.068;12.116;2022-07-18T06:14:04;5.70;;;3.33;;
583;SDS011;27024;54.068;12.116;2022-07-18T06:16:31;5.50;;;2.63;;
583;SDS011;27024;54.068;12.116;2022-07-18T06:18:58;5.47;;;3.58;;
583;SDS011;27024;54.068;12.116;2022-07-18T06:21:26;4.88;;;2.63;;
583;SDS011;27024;54.068;12.116;2022-07-18T06:23:52;5.18;;;2.40;;
583;SDS011;27024;54.068;12.116;2022-07-18T06:26:20;4.40;;;2.72;;
583;SDS011;27024;54.068;12.116;2022-07-18T06:28:47;6.18;;;3.00;;
583;SDS011;27024;54.068;12.116;2022-07-18T06:31:14;4.40;;;2.60;;
583;SDS011;27024;54.068;12.116;2022-07-18T06:33:43;4.30;;;2.33;;
583;SDS011;27024;54.068;12.116;2022-07-18T06:36:10;6.57;;;2.83;;
583;SDS011;27024;54.068;12.116;2022-07-18T06:38:38;5.25;;;2.53;;
583;SDS011;27024;54.068;12.116;2022-07-18T06:41:06;6.35;;;2.60;;
583;SDS011;27024;54.068;12.116;2022-07-18T06:43:36;6.65;;;2.80;;
583;SDS011;27024;54.068;12.116;2022-07-18T06:46:03;4.93;;;2.72;;
583;SDS011;27024;54.068;12.116;2022-07-18T06:48:31;5.20;;;2.58;;
583;SDS011;27024;54.068;12.116;2022-07-18T06:50:59;4.15;;;2.80;;
583;SDS011;27024;54.068;12.116;2022-07-18T06:53:31;5.40;;;2.95;;
583;SDS011;27024;54.068;12.116;2022-07-18T06:55:59;5.55;;;2.80;;
583;SDS011;27024;54.068;12.116;2022-07-18T06:58:29;6.70;;;2.58;;
583;SDS011;27024;54.068;12.116;2022-07-18T07:00:59;7.18;;;3.10;;
583;SDS011;27024;54.068;12.116;2022-07-18T07:03:27;4.65;;;2.97;;
583;SDS011;27024;54.068;12.116;2022-07-18T07:05:54;4.93;;;2.75;;
583;SDS011;27024;54.068;12.116;2022-07-18T07:08:21;6.85;;;3.40;;
583;SDS011;27024;54.068;12.116;2022-07-18T07:10:47;5.22;;;2.88;;
583;SDS011;27024;54.068;12.116;2022-07-18T07:13:14;5.00;;;2.85;;
583;SDS011;27024;54.068;12.116;2022-07-18T07:15:43;7.00;;;3.30;;
583;SDS011;27024;54.068;12.116;2022-07-18T07:18:10;4.72;;;2.88;;
583;SDS011;27024;54.068;12.116;2022-07-18T07:20:37;3.85;;;2.47;;
583;SDS011;27024;54.068;12.116;2022-07-18T07:23:04;5.75;;;2.80;;
583;SDS011;27024;54.068;12.116;2022-07-18T07:25:34;5.13;;;2.90;;
583;SDS011;27024;54.068;12.116;2022-07-18T07:28:02;7.20;;;3.33;;
583;SDS011;27024;54.068;12.116;2022-07-18T07:30:29;5.22;;;3.47;;
583;SDS011;27024;54.068;12.116;2022-07-18T07:32:56;4.82;;;3.13;;
583;SDS011;27024;54.068;12.116;2022-07-18T07:35:23;4.93;;;3.20;;
583;SDS011;27024;54.068;12.116;2022-07-18T07:37:58;5.75;;;2.83;;
583;SDS011;27024;54.068;12.116;2022-07-18T07:40:26;5.47;;;3.13;;
583;SDS011;27024;54.068;12.116;2022-07-18T07:43:04;5.32;;;2.78;;
583;SDS011;27024;54.068;12.116;2022-07-18T07:45:36;6.55;;;2.90;;
583;SDS011;27024;54.068;12.116;2022-07-18T07:48:04;5.75;;;3.00;;
583;SDS011;27024;54.068;12.116;2022-07-18T07:50:31;5.68;;;3.03;;
583;SDS011;27024;54.068;12.116;2022-07-18T07:52:58;5.75;;;2.88;;
583;SDS011;27024;54.068;12.116;2022-07-18T07:55:26;7.43;;;3.28;;
583;SDS011;27024;54.068;12.116;2022-07-18T07:57:54;8.85;;;3.08;;
583;SDS011;27024;54.068;12.116;2022-07-18T08:00:22;5.90;;;2.55;;
583;SDS011;27024;54.068;12.116;2022-07-18T08:02:53;6.70;;;2.92;;
583;SDS011;27024;54.068;12.116;2022-07-18T08:05:26;5.22;;;2.53;;
583;SDS011;27024;54.068;12.116;2022-07-18T08:07:57;6.82;;;3.10;;
583;SDS011;27024;54.068;12.116;2022-07-18T08:10:25;7.05;;;2.65;;
583;SDS011;27024;54.068;12.116;2022-07-18T08:12:53;6.07;;;2.78;;
583;SDS011;27024;54.068;12.116;2022-07-18T08:15:19;6.95;;;2.63;;
583;SDS011;27024;54.068;12.116;2022-07-18T08:17:46;5.90;;;3.65;;
583;SDS011;27024;54.068;12.116;2022-07-18T08:20:14;4.60;;;2.63;;
583;SDS011;27024;54.068;12.116;2022-07-18T08:22:53;4.78;;;3.03;;
583;SDS011;27024;54.068;12.116;2022-07-18T08:25:28;6.20;;;3.10;;
583;SDS011;27024;54.068;12.116;2022-07-18T08:27:56;5.93;;;3.17;;
583;SDS011;27024;54.068;12.116;2022-07-18T08:30:24;5.97;;;2.53;;
583;SDS011;27024;54.068;12.116;2022-07-18T08:32:51;4.30;;;2.70;;
583;SDS011;27024;54.068;12.116;2022-07-18T08:35:19;5.22;;;2.92;;
583;SDS011;27024;54.068;12.116;2022-07-18T08:37:46;5.47;;;2.97;;
583;SDS011;27024;54.068;12.116;2022-07-18T08:40:13;5.63;;;3.03;;
583;SDS011;27024;54.068;12.116;2022-07-18T08:42:40;5.00;;;3.72;;
583;SDS011;27024;54.068;12.116;2022-07-18T08:45:28;6.68;;;3.00;;
583;SDS011;27024;54.068;12.116;2022-07-18T08:47:55;5.57;;;3.10;;
583;SDS011;27024;54.068;12.116;2022-07-18T08:50:22;5.30;;;2.88;;
583;SDS011;27024;54.068;12.116;2022-07-18T08:52:49;6.82;;;3.20;;
583;SDS011;27024;54.068;12.116;2022-07-18T08:55:19;6.88;;;3.78;;
583;SDS011;27024;54.068;12.116;2022-07-18T08:57:52;7.13;;;3.47;;
583;SDS011;27024;54.068;12.116;2022-07-18T09:00:19;5.72;;;3.28;;
583;SDS011;27024;54.068;12.116;2022-07-18T09:02:58;5.90;;;3.15;;
583;SDS011;27024;54.068;12.116;2022-07-18T09:05:26;6.07;;;2.95;;
583;SDS011;27024;54.068;12.116;2022-07-18T09:13:18;5.45;;;2.90;;
583;SDS011;27024;54.068;12.116;2022-07-18T09:15:57;5.88;;;2.95;;
583;SDS011;27024;54.068;12.116;2022-07-18T09:18:33;10.88;;;3.55;;
583;SDS011;27024;54.068;12.116;2022-07-18T09:21:09;5.70;;;2.92;;
583;SDS011;27024;54.068;12.116;2022-07-18T09:23:39;6.82;;;2.90;;
583;SDS011;27024;54.068;12.116;2022-07-18T09:26:08;5.88;;;3.45;;
583;SDS011;27024;54.068;12.116;2022-07-18T09:28:44;5.05;;;3.30;;
583;SDS011;27024;54.068;12.116;2022-07-18T09:31:32;6.15;;;2.75;;
583;SDS011;27024;54.068;12.116;2022-07-18T09:34:01;5.38;;;2.80;;
583;SDS011;27024;54.068;12.116;2022-07-18T09:36:29;6.80;;;3.10;;
583;SDS011;27024;54.068;12.116;2022-07-18T09:39:00;6.10;;;3.30;;
583;SDS011;27024;54.068;12.116;2022-07-18T09:41:28;7.05;;;3.00;;
583;SDS011;27024;54.068;12.116;2022-07-18T09:44:13;5.00;;;3.00;;
583;SDS011;27024;54.068;12.116;2022-07-18T09:47:00;7.93;;;3.55;;
583;SDS011;27024;54.068;12.116;2022-07-18T09:49:31;4.78;;;2.85;;
583;SDS011;27024;54.068;12.116;2022-07-18T09:52:03;5.57;;;3.53;;
583;SDS011;27024;54.068;12.116;2022-07-18T09:54:35;6.57;;;3.40;;
583;SDS011;27024;54.068;12.116;2022-07-18T09:57:22;7.32;;;3.53;;
583;SDS011;27024;54.068;12.116;2022-07-18T09:59:50;5.65;;;3.53;;
583;SDS011;27024;54.068;12.116;2022-07-18T10:02:18;5.72;;;3.13;;
583;SDS011;27024;54.068;12.116;2022-07-18T10:04:45;6.05;;;3.45;;
583;SDS011;27024;54.068;12.116;2022-07-18T10:07:13;6.38;;;3.22;;
583;SDS011;27024;54.068;12.116;2022-07-18T10:09:41;6.47;;;3.80;;
583;SDS011;27024;54.068;12.116;2022-07-18T10:12:11;5.95;;;3.40;;
583;SDS011;27024;54.068;12.116;2022-07-18T10:14:40;6.18;;;3.22;;
583;SDS011;27024;54.068;12.116;2022-07-18T10:17:07;5.35;;;3.38;;
583;SDS011;27024;54.068;12.116;2022-07-18T10:19:36;5.15;;;3.55;;
583;SDS011;27024;54.068;12.116;2022-07-18T10:22:03;8.18;;;3.65;;
583;SDS011;27024;54.068;12.116;2022-07-18T10:24:32;4.82;;;3.22;;
583;SDS011;27024;54.068;12.116;2022-07-18T10:27:19;6.35;;;3.55;;
583;SDS011;27024;54.068;12.116;2022-07-18T10:36:06;5.93;;;3.65;;
583;SDS011;27024;54.068;12.116;2022-07-18T10:38:38;5.72;;;3.13;;
583;SDS011;27024;54.068;12.116;2022-07-18T10:41:21;6.38;;;3.50;;
583;SDS011;27024;54.068;12.116;2022-07-18T10:43:47;6.68;;;3.97;;
583;SDS011;27024;54.068;12.116;2022-07-18T10:46:14;6.00;;;3.70;;
583;SDS011;27024;54.068;12.116;2022-07-18T10:51:14;7.80;;;3.75;;
583;SDS011;27024;54.068;12.116;2022-07-18T10:59:01;5.95;;;3.47;;
583;SDS011;27024;54.068;12.116;2022-07-18T11:01:54;7.65;;;3.85;;
583;SDS011;27024;54.068;12.116;2022-07-18T11:07:32;6.20;;;3.40;;
583;SDS011;27024;54.068;12.116;2022-07-18T11:09:51;7.13;;;3.85;;
583;SDS011;27024;54.068;12.116;2022-07-18T11:12:26;7.85;;;3.60;;
583;SDS011;27024;54.068;12.116;2022-07-18T11:17:54;6.32;;;3.58;;
583;SDS011;27024;54.068;12.116;2022-07-18T11:22:56;5.38;;;3.47;;
583;SDS011;27024;54.068;12.116;2022-07-18T11:25:27;6.47;;;3.42;;
583;SDS011;27024;54.068;12.116;2022-07-18T11:28:14;6.53;;;3.45;;
583;SDS011;27024;54.068;12.116;2022-07-18T11:30:42;5.68;;;3.45;;
583;SDS011;27024;54.068;12.116;2022-07-18T11:33:24;6.90;;;3.30;;
583;SDS011;27024;54.068;12.116;2022-07-18T11:35:52;5.15;;;3.42;;
583;SDS011;27024;54.068;12.116;2022-07-18T11:38:41;6.45;;;3.63;;
583;SDS011;27024;54.068;12.116;2022-07-18T11:41:14;7.68;;;3.60;;
583;SDS011;27024;54.068;12.116;2022-07-18T11:43:46;7.03;;;3.53;;
583;SDS011;27024;54.068;12.116;2022-07-18T11:46:15;5.25;;;3.03;;
583;SDS011;27024;54.068;12.116;2022-07-18T11:48:44;4.60;;;2.67;;
583;SDS011;27024;54.068;12.116;2022-07-18T11:51:24;5.30;;;2.95;;
583;SDS011;27024;54.068;12.116;2022-07-18T11:53:52;5.80;;;2.83;;
583;SDS011;27024;54.068;12.116;2022-07-18T11:56:20;4.40;;;2.42;;
583;SDS011;27024;54.068;12.116;2022-07-18T11:58:49;6.90;;;3.35;;
583;SDS011;27024;54.068;12.116;2022-07-18T12:01:16;7.95;;;2.90;;
583;SDS011;27024;54.068;12.116;2022-07-18T12:03:44;6.65;;;2.58;;
583;SDS011;27024;54.068;12.116;2022-07-18T12:06:22;7.38;;;2.78;;
583;SDS011;27024;54.068;12.116;2022-07-18T12:08:53;6.25;;;2.70;;
583;SDS011;27024;54.068;12.116;2022-07-18T12:11:33;7.13;;;2.53;;
583;SDS011;27024;54.068;12.116;2022-07-18T12:24:35;5.75;;;2.92;;
583;SDS011;27024;54.068;12.116;2022-07-18T12:32:38;5.05;;;3.15;;
583;SDS011;27024;54.068;12.116;2022-07-18T12:35:18;6.32;;;3.55;;
583;SDS011;27024;54.068;12.116;2022-07-18T12:40:26;5.43;;;3.25;;
583;SDS011;27024;54.068;12.116;2022-07-18T12:43:05;5.65;;;3.28;;
583;SDS011;27024;54.068;12.116;2022-07-18T12:45:35;5.78;;;3.15;;
583;SDS011;27024;54.068;12.116;2022-07-18T12:48:02;4.95;;;3.20;;
583;SDS011;27024;54.068;12.116;2022-07-18T12:50:30;5.07;;;3.25;;
583;SDS011;27024;54.068;12.116;2022-07-18T12:52:57;4.82;;;2.55;;
583;SDS011;27024;54.068;12.116;2022-07-18T12:55:25;5.28;;;3.15;;
583;SDS011;27024;54.068;12.116;2022-07-18T12:57:58;7.55;;;2.90;;
583;SDS011;27024;54.068;12.116;2022-07-18T13:00:27;6.88;;;2.72;;
583;SDS011;27024;54.068;12.116;2022-07-18T13:02:56;8.32;;;3.13;;
583;SDS011;27024;54.068;12.116;2022-07-18T13:05:24;4.63;;;3.17;;
583;SDS011;27024;54.068;12.116;2022-07-18T13:07:52;5.45;;;3.40;;
583;SDS011;27024;54.068;12.116;2022-07-18T13:10:19;6.03;;;3.13;;
583;SDS011;27024;54.068;12.116;2022-07-18T13:12:47;6.07;;;3.05;;
583;SDS011;27024;54.068;12.116;2022-07-18T13:15:14;6.13;;;3.38;;
583;SDS011;27024;54.068;12.116;2022-07-18T13:17:41;5.53;;;2.72;;
583;SDS011;27024;54.068;12.116;2022-07-18T13:20:09;6.70;;;2.88;;
583;SDS011;27024;54.068;12.116;2022-07-18T13:22:37;5.15;;;2.78;;
583;SDS011;27024;54.068;12.116;2022-07-18T13:25:05;4.50;;;2.88;;
583;SDS011;27024;54.068;12.116;2022-07-18T13:27:33;6.72;;;2.92;;
583;SDS011;27024;54.068;12.116;2022-07-18T13:30:01;6.65;;;3.20;;
583;SDS011;27024;54.068;12.116;2022-07-18T13:32:30;5.00;;;3.20;;
583;SDS011;27024;54.068;12.116;2022-07-18T13:34:57;4.70;;;2.75;;
583;SDS011;27024;54.068;12.116;2022-07-18T13:37:24;6.18;;;2.75;;
583;SDS011;27024;54.068;12.116;2022-07-18T13:39:51;5.05;;;3.13;;
583;SDS011;27024;54.068;12.116;2022-07-18T13:42:17;5.32;;;3.10;;
583;SDS011;27024;54.068;12.116;2022-07-18T13:44:44;5.47;;;3.30;;
583;SDS011;27024;54.068;12.116;2022-07-18T13:47:12;4.95;;;2.78;;
583;SDS011;27024;54.068;12.116;2022-07-18T13:49:39;6.70;;;3.55;;
583;SDS011;27024;54.068;12.116;2022-07-18T13:52:06;5.35;;;2.72;;
583;SDS011;27024;54.068;12.116;2022-07-18T13:54:36;4.57;;;3.25;;
583;SDS011;27024;54.068;12.116;2022-07-18T13:57:03;6.30;;;3.80;;
583;SDS011;27024;54.068;12.116;2022-07-18T13:59:30;6.03;;;3.08;;
583;SDS011;27024;54.068;12.116;2022-07-18T14:01:57;5.22;;;3.15;;
583;SDS011;27024;54.068;12.116;2022-07-18T14:04:24;7.03;;;3.58;;
583;SDS011;27024;54.068;12.116;2022-07-18T14:07:00;6.78;;;3.53;;
583;SDS011;27024;54.068;12.116;2022-07-18T14:09:28;5.20;;;3.13;;
583;SDS011;27024;54.068;12.116;2022-07-18T14:11:55;7.30;;;3.50;;
583;SDS011;27024;54.068;12.116;2022-07-18T14:14:22;5.72;;;2.97;;
583;SDS011;27024;54.068;12.116;2022-07-18T14:16:49;6.72;;;3.60;;
583;SDS011;27024;54.068;12.116;2022-07-18T14:19:17;7.20;;;3.22;;
583;SDS011;27024;54.068;12.116;2022-07-18T14:21:46;5.35;;;3.40;;
583;SDS011;27024;54.068;12.116;2022-07-18T14:24:13;6.03;;;3.05;;
583;SDS011;27024;54.068;12.116;2022-07-18T14:26:40;4.95;;;3.15;;
583;SDS011;27024;54.068;12.116;2022-07-18T14:29:07;6.80;;;3.13;;
583;SDS011;27024;54.068;12.116;2022-07-18T14:31:34;7.32;;;3.22;;
583;SDS011;27024;54.068;12.116;2022-07-18T14:34:01;5.60;;;2.70;;
583;SDS011;27024;54.068;12.116;2022-07-18T14:36:28;5.20;;;2.95;;
583;SDS011;27024;54.068;12.116;2022-07-18T14:38:57;4.93;;;3.10;;
583;SDS011;27024;54.068;12.116;2022-07-18T14:41:24;8.20;;;3.03;;
583;SDS011;27024;54.068;12.116;2022-07-18T14:43:51;5.65;;;3.40;;
583;SDS011;27024;54.068;12.116;2022-07-18T14:46:17;6.55;;;3.08;;
583;SDS011;27024;54.068;12.116;2022-07-18T14:48:45;5.47;;;2.90;;
583;SDS011;27024;54.068;12.116;2022-07-18T14:51:14;5.03;;;3.10;;
583;SDS011;27024;54.068;12.116;2022-07-18T14:53:41;6.90;;;2.88;;
583;SDS011;27024;54.068;12.116;2022-07-18T14:56:08;4.63;;;2.55;;
583;SDS011;27024;54.068;12.116;2022-07-18T14:58:35;5.43;;;3.03;;
583;SDS011;27024;54.068;12.116;2022-07-18T15:01:02;6.63;;;3.17;;
583;SDS011;27024;54.068;12.116;2022-07-18T15:03:29;4.03;;;2.72;;
583;SDS011;27024;54.068;12.116;2022-07-18T15:06:17;3.85;;;2.53;;
583;SDS011;27024;54.068;12.116;2022-07-18T15:08:44;4.63;;;3.53;;
583;SDS011;27024;54.068;12.116;2022-07-18T15:11:11;9.35;;;3.60;;
583;SDS011;27024;54.068;12.116;2022-07-18T15:13:38;5.10;;;2.80;;
583;SDS011;27024;54.068;12.116;2022-07-18T15:16:05;4.38;;;2.92;;
583;SDS011;27024;54.068;12.116;2022-07-18T15:18:32;4.78;;;3.00;;
583;SDS011;27024;54.068;12.116;2022-07-18T15:20:59;5.22;;;3.38;;
583;SDS011;27024;54.068;12.116;2022-07-18T15:23:26;5.68;;;3.17;;
583;SDS011;27024;54.068;12.116;2022-07-18T15:25:53;6.32;;;3.17;;
583;SDS011;27024;54.068;12.116;2022-07-18T15:28:21;4.78;;;3.22;;
583;SDS011;27024;54.068;12.116;2022-07-18T15:30:49;5.22;;;3.60;;
583;SDS011;27024;54.068;12.116;2022-07-18T15:33:17;5.22;;;3.08;;
583;SDS011;27024;54.068;12.116;2022-07-18T15:35:44;5.50;;;3.13;;
583;SDS011;27024;54.068;12.116;2022-07-18T15:38:11;5.68;;;3.75;;
583;SDS011;27024;54.068;12.116;2022-07-18T15:40:38;4.50;;;2.80;;
583;SDS011;27024;54.068;12.116;2022-07-18T15:43:06;4.57;;;3.35;;
583;SDS011;27024;54.068;12.116;2022-07-18T15:45:33;4.90;;;3.53;;
583;SDS011;27024;54.068;12.116;2022-07-18T15:48:03;4.93;;;3.25;;
583;SDS011;27024;54.068;12.116;2022-07-18T15:50:30;6.00;;;3.53;;
583;SDS011;27024;54.068;12.116;2022-07-18T15:52:57;5.00;;;3.58;;
583;SDS011;27024;54.068;12.116;2022-07-18T15:55:24;7.20;;;3.72;;
583;SDS011;27024;54.068;12.116;2022-07-18T15:57:57;8.52;;;3.30;;